Time;durP1;ratioP1;P1;durP2;ratioP2;P2;SDS_P1;SDS_P2;PMS_P1;PMS_P2;Temp;Humidity;BMP_temperature;BMP_pressure;BME280_temperature;BME280_humidity;BME280_pressure;Samples;Min_cycle;Max_cycle;Signal;HPM_P1;HPM_P2
2022/12/05 00:08:11;;;;;;;16.33;8.97;;;-7.00;99.90;;;;;;5068996;28;20590;-64
2022/12/05 00:10:39;;;;;;;15.43;8.27;;;-6.60;99.90;;;;;;5068817;28;20200;-65
2022/12/05 00:13:06;;;;;;;16.63;9.10;;;-6.60;99.90;;;;;;5069130;28;20595;-66
2022/12/05 00:15:37;;;;;;;15.40;8.70;;;-6.60;99.90;;;;;;5068869;28;20678;-64
2022/12/05 00:18:04;;;;;;;15.20;8.30;;;-6.60;99.90;;;;;;5068962;28;20230;-64
2022/12/05 00:20:31;;;;;;;16.20;8.63;;;-6.60;99.90;;;;;;5068934;28;20255;-65
2022/12/05 00:22:58;;;;;;;17.10;8.77;;;-6.60;99.90;;;;;;5068870;28;20676;-64
2022/12/05 00:25:26;;;;;;;18.53;8.80;;;-6.60;99.90;;;;;;5068502;28;20212;-64
2022/12/05 00:27:52;;;;;;;18.07;9.43;;;-6.70;99.90;;;;;;5068670;28;20205;-65
2022/12/05 00:30:19;;;;;;;16.53;9.27;;;-6.70;99.90;;;;;;5068970;28;20205;-64
2022/12/05 00:32:46;;;;;;;19.27;9.57;;;-6.70;99.90;;;;;;5068723;28;20666;-65
2022/12/05 00:35:13;;;;;;;15.83;8.83;;;-6.70;99.90;;;;;;5068905;28;20681;-64
2022/12/05 00:37:40;;;;;;;18.90;8.97;;;-6.80;99.90;;;;;;5068363;28;20228;-64
2022/12/05 00:40:08;;;;;;;17.57;7.83;;;-6.80;99.90;;;;;;5068617;28;20205;-65
2022/12/05 00:42:36;;;;;;;16.70;8.53;;;-6.80;99.90;;;;;;5067939;28;20213;-65
2022/12/05 00:45:03;;;;;;;19.00;9.00;;;-6.80;99.90;;;;;;5068091;28;20219;-64
2022/12/05 00:47:29;;;;;;;16.40;8.77;;;-6.80;99.90;;;;;;5068407;28;20236;-64
2022/12/05 00:49:56;;;;;;;19.10;9.37;;;-6.80;99.90;;;;;;5068143;28;20688;-64
2022/12/05 00:52:23;;;;;;;15.17;7.40;;;-6.90;99.90;;;;;;5068236;28;20662;-65
2022/12/05 00:54:50;;;;;;;17.27;7.60;;;-6.90;99.90;;;;;;5067988;28;20212;-63
2022/12/05 00:57:16;;;;;;;17.87;7.07;;;-6.90;99.90;;;;;;5068190;28;20231;-64
2022/12/05 00:59:45;;;;;;;20.13;9.53;;;-6.90;99.90;;;;;;5067665;28;20205;-65
2022/12/05 01:02:12;;;;;;;15.80;7.70;;;-6.90;99.90;;;;;;5068194;28;20211;-64
2022/12/05 01:04:38;;;;;;;20.40;9.80;;;-6.90;99.90;;;;;;5067910;28;20211;-63
2022/12/05 01:07:05;;;;;;;16.43;7.43;;;-6.90;99.90;;;;;;5065804;28;20236;-64
2022/12/05 01:09:32;;;;;;;17.17;7.57;;;-6.90;99.90;;;;;;5054287;28;20204;-65
2022/12/05 01:11:59;;;;;;;21.10;8.93;;;-6.90;99.90;;;;;;5054889;28;20679;-64
2022/12/05 01:14:26;;;;;;;15.53;8.30;;;-6.90;99.90;;;;;;5054988;28;20209;-64
2022/12/05 01:16:55;;;;;;;14.10;7.57;;;-6.90;99.90;;;;;;5054258;28;20211;-65
2022/12/05 01:19:24;;;;;;;17.27;7.23;;;-6.90;99.90;;;;;;5054855;28;20212;-64
2022/12/05 01:21:52;;;;;;;19.20;8.10;;;-6.90;99.90;;;;;;5054184;28;20553;-65
2022/12/05 01:24:20;;;;;;;16.90;6.93;;;-6.90;99.90;;;;;;5054497;28;20209;-64
2022/12/05 01:26:48;;;;;;;15.13;8.40;;;-6.90;99.90;;;;;;5054348;28;20764;-65
2022/12/05 01:29:18;;;;;;;15.73;6.90;;;-6.90;99.90;;;;;;5054443;28;20201;-65
2022/12/05 01:31:44;;;;;;;15.93;7.10;;;-6.90;99.90;;;;;;5054010;28;20667;-64
2022/12/05 01:34:15;;;;;;;19.00;9.13;;;-6.90;99.90;;;;;;5054606;28;20212;-64
2022/12/05 01:36:42;;;;;;;18.87;9.77;;;-7.00;99.90;;;;;;5054243;28;20186;-65
2022/12/05 01:39:10;;;;;;;17.63;8.97;;;-7.00;99.90;;;;;;5054382;28;20212;-65
2022/12/05 01:41:39;;;;;;;19.80;8.07;;;-7.00;99.90;;;;;;5053720;28;20205;-65
2022/12/05 01:44:08;;;;;;;19.97;7.80;;;-6.90;99.90;;;;;;5054332;28;20208;-65
2022/12/05 01:46:37;;;;;;;21.63;8.43;;;-6.90;99.90;;;;;;5053733;28;20228;-65
2022/12/05 01:49:07;;;;;;;22.17;10.43;;;-7.00;99.90;;;;;;5053864;28;20224;-63
2022/12/05 01:51:38;;;;;;;26.17;11.70;;;-7.00;99.90;;;;;;5053746;28;20189;-64
2022/12/05 01:54:06;;;;;;;17.67;7.47;;;-7.00;99.90;;;;;;5053930;28;20198;-65
2022/12/05 01:56:34;;;;;;;17.30;9.30;;;-7.00;99.90;;;;;;5053936;28;20221;-64
2022/12/05 01:59:02;;;;;;;23.33;10.57;;;-7.00;99.90;;;;;;5053714;28;20205;-64
2022/12/05 02:01:29;;;;;;;24.87;11.67;;;-7.00;99.90;;;;;;5053982;28;20215;-65
2022/12/05 02:03:58;;;;;;;17.57;7.57;;;-7.00;99.90;;;;;;5054159;28;20655;-65
2022/12/05 02:06:26;;;;;;;17.23;7.30;;;-7.00;99.90;;;;;;5053394;28;20237;-64
2022/12/05 02:08:55;;;;;;;18.20;9.10;;;-7.10;99.90;;;;;;5054229;28;20201;-65
2022/12/05 02:11:24;;;;;;;16.80;7.93;;;-7.10;99.90;;;;;;5053914;28;20205;-64
2022/12/05 02:14:04;;;;;;;15.30;7.20;;;-7.00;99.90;;;;;;5053770;28;20201;-64
2022/12/05 02:16:42;;;;;;;18.17;9.07;;;-7.00;99.90;;;;;;5053539;28;20669;-64
2022/12/05 02:19:39;;;;;;;17.33;7.67;;;-7.10;99.90;;;;;;5052789;28;20553;-66
2022/12/05 02:22:43;;;;;;;15.27;8.07;;;-7.00;99.90;;;;;;5053064;28;20225;-68
2022/12/05 02:26:00;;;;;;;13.87;6.87;;;-7.00;99.90;;;;;;5053443;28;20205;-65
2022/12/05 02:28:52;;;;;;;14.17;8.33;;;-7.10;99.90;;;;;;5053344;28;20196;-65
2022/12/05 02:31:27;;;;;;;13.97;7.13;;;-7.10;99.90;;;;;;5053464;28;20269;-65
2022/12/05 02:34:02;;;;;;;12.20;6.47;;;-7.10;99.90;;;;;;5053815;28;20627;-64
2022/12/05 02:36:36;;;;;;;15.93;7.13;;;-7.10;99.90;;;;;;5053132;28;20189;-64
2022/12/05 02:39:11;;;;;;;13.70;7.37;;;-7.10;99.90;;;;;;5053405;28;20200;-64
2022/12/05 02:41:43;;;;;;;13.27;7.43;;;-7.20;99.90;;;;;;5053192;28;20627;-64
2022/12/05 02:44:16;;;;;;;12.13;6.77;;;-7.20;99.90;;;;;;5053146;28;20197;-63
2022/12/05 02:46:47;;;;;;;18.03;8.20;;;-7.20;99.90;;;;;;5053143;28;20244;-64
2022/12/05 02:49:18;;;;;;;19.73;7.90;;;-7.20;99.90;;;;;;5053028;28;20290;-64
2022/12/05 02:51:49;;;;;;;19.43;7.87;;;-7.20;99.90;;;;;;5052758;28;20200;-64
2022/12/05 02:54:19;;;;;;;15.60;7.77;;;-7.20;99.90;;;;;;5053080;28;20199;-64
2022/12/05 02:56:47;;;;;;;20.43;8.37;;;-7.20;99.90;;;;;;5052642;28;20222;-64
2022/12/05 02:59:14;;;;;;;17.10;7.30;;;-7.10;99.90;;;;;;5052676;28;20205;-65
2022/12/05 03:01:46;;;;;;;16.80;7.97;;;-7.10;99.90;;;;;;5052314;28;20205;-64
2022/12/05 03:04:16;;;;;;;16.37;7.57;;;-7.10;99.90;;;;;;5052460;28;20189;-64
2022/12/05 03:06:47;;;;;;;15.13;8.03;;;-7.10;99.90;;;;;;5052404;28;20233;-65
2022/12/05 03:09:18;;;;;;;14.90;8.20;;;-7.10;99.90;;;;;;5052180;28;20209;-64
2022/12/05 03:11:49;;;;;;;13.57;7.10;;;-7.10;99.90;;;;;;5052925;28;20194;-63
2022/12/05 03:14:20;;;;;;;13.53;6.77;;;-7.10;99.90;;;;;;5052057;28;20193;-65
2022/12/05 03:16:51;;;;;;;17.10;8.10;;;-7.20;99.90;;;;;;5052420;28;20185;-67
2022/12/05 03:19:24;;;;;;;21.60;6.97;;;-7.20;99.90;;;;;;5052083;28;20309;-64
2022/12/05 03:21:56;;;;;;;15.13;8.50;;;-7.30;99.90;;;;;;5052114;28;20194;-64
2022/12/05 03:24:23;;;;;;;14.43;6.77;;;-7.30;99.90;;;;;;5052272;28;20196;-64
2022/12/05 03:27:00;;;;;;;15.00;8.50;;;-7.30;99.90;;;;;;5051687;28;20225;-64
2022/12/05 03:29:34;;;;;;;14.73;7.40;;;-7.30;99.90;;;;;;5052197;28;20558;-65
2022/12/05 03:32:08;;;;;;;13.47;7.27;;;-7.30;99.90;;;;;;5052019;28;20190;-65
2022/12/05 03:34:49;;;;;;;14.00;7.33;;;-7.30;99.90;;;;;;5052240;28;20279;-65
2022/12/05 03:37:25;;;;;;;18.17;9.40;;;-7.30;99.90;;;;;;5052088;28;20193;-64
2022/12/05 03:40:04;;;;;;;15.73;6.90;;;-7.40;99.90;;;;;;5052312;28;20204;-64
2022/12/05 03:42:35;;;;;;;13.47;6.60;;;-7.30;99.90;;;;;;5052014;28;20262;-65
2022/12/05 03:45:08;;;;;;;17.17;9.50;;;-7.40;99.90;;;;;;5052466;28;20196;-64
2022/12/05 03:47:42;;;;;;;18.23;10.23;;;-7.40;99.90;;;;;;5051976;28;20213;-65
2022/12/05 03:50:14;;;;;;;18.00;8.70;;;-7.40;99.90;;;;;;5051724;28;20662;-65
2022/12/05 03:52:46;;;;;;;18.90;8.37;;;-7.40;99.90;;;;;;5052009;28;20202;-66
2022/12/05 03:55:14;;;;;;;16.80;8.97;;;-7.40;99.90;;;;;;5051575;28;20236;-64
2022/12/05 03:57:45;;;;;;;17.07;8.77;;;-7.40;99.90;;;;;;5051899;28;20209;-64
2022/12/05 04:00:17;;;;;;;17.13;9.03;;;-7.40;99.90;;;;;;5051752;28;20193;-64
2022/12/05 04:02:50;;;;;;;21.83;10.60;;;-7.40;99.90;;;;;;5051862;28;20185;-64
2022/12/05 04:05:21;;;;;;;18.00;8.93;;;-7.40;99.90;;;;;;5051862;28;20193;-65
2022/12/05 04:07:52;;;;;;;17.13;8.43;;;-7.40;99.90;;;;;;5051325;28;20237;-64
2022/12/05 04:10:23;;;;;;;18.77;8.47;;;-7.40;99.90;;;;;;5051830;28;20200;-64
2022/12/05 04:12:53;;;;;;;19.03;9.67;;;-7.40;99.90;;;;;;5051771;28;20200;-65
2022/12/05 04:15:25;;;;;;;16.10;7.93;;;-7.40;99.90;;;;;;5051605;28;20196;-64
2022/12/05 04:17:56;;;;;;;19.90;8.57;;;-7.40;99.90;;;;;;5051907;28;20189;-64
2022/12/05 04:23:13;;;;;;;19.10;7.83;;;-7.40;99.90;;;;;;5051303;28;20185;-65
2022/12/05 04:25:49;;;;;;;15.37;7.60;;;-7.40;99.90;;;;;;5051365;28;20216;-63
2022/12/05 04:28:27;;;;;;;16.27;7.97;;;-7.40;99.90;;;;;;5051456;28;20219;-65
2022/12/05 04:31:03;;;;;;;15.03;8.30;;;-7.50;99.90;;;;;;5050947;28;20565;-65
2022/12/05 04:33:39;;;;;;;15.07;7.30;;;-7.50;99.90;;;;;;5048215;28;20195;-65
2022/12/05 04:36:13;;;;;;;15.47;7.67;;;-7.50;99.90;;;;;;5051398;28;20199;-65
2022/12/05 04:38:48;;;;;;;15.47;9.17;;;-7.50;99.90;;;;;;5051149;28;20200;-64
2022/12/05 04:41:21;;;;;;;17.17;7.70;;;-7.50;99.90;;;;;;5040893;28;20198;-65
2022/12/05 04:43:49;;;;;;;15.47;8.03;;;-7.50;99.90;;;;;;5034052;28;20191;-65
2022/12/05 04:46:19;;;;;;;14.80;7.50;;;-7.50;99.90;;;;;;5035124;28;20209;-63
2022/12/05 04:48:52;;;;;;;17.60;8.77;;;-7.50;99.90;;;;;;5035070;28;20229;-65
2022/12/05 04:51:23;;;;;;;15.10;8.47;;;-7.50;99.90;;;;;;5034627;28;20199;-65
2022/12/05 04:53:56;;;;;;;16.43;7.67;;;-7.50;99.90;;;;;;5034629;28;20187;-65
2022/12/05 04:56:27;;;;;;;11.13;6.67;;;-7.50;99.90;;;;;;5034840;28;20240;-66
2022/12/05 04:58:54;;;;;;;16.97;7.53;;;-7.50;99.90;;;;;;5034951;28;20190;-64
2022/12/05 05:01:25;;;;;;;14.53;7.60;;;-7.50;99.90;;;;;;5034150;28;20220;-65
2022/12/05 05:03:58;;;;;;;15.33;8.20;;;-7.50;99.90;;;;;;5034688;28;20190;-64
2022/12/05 05:06:26;;;;;;;15.90;6.83;;;-7.50;99.90;;;;;;5034552;28;20604;-65
2022/12/05 05:08:54;;;;;;;13.90;8.20;;;-7.50;99.90;;;;;;5034693;28;20237;-65
2022/12/05 05:11:23;;;;;;;14.97;8.40;;;-7.50;99.90;;;;;;5034606;28;20202;-65
2022/12/05 05:13:50;;;;;;;17.03;8.33;;;-7.50;99.90;;;;;;5039129;28;20197;-66
2022/12/05 05:16:18;;;;;;;16.43;7.47;;;-7.50;99.90;;;;;;5053553;28;20216;-66
2022/12/05 05:18:45;;;;;;;16.40;6.97;;;-7.50;99.90;;;;;;5053658;28;20212;-65
2022/12/05 05:21:22;;;;;;;15.83;8.93;;;-7.60;99.90;;;;;;5054233;28;20200;-64
2022/12/05 05:23:49;;;;;;;15.97;8.40;;;-7.60;99.90;;;;;;5054417;28;20554;-64
2022/12/05 05:26:16;;;;;;;15.67;7.77;;;-7.60;99.90;;;;;;5053614;28;20208;-65
2022/12/05 05:28:42;;;;;;;19.53;9.50;;;-7.60;99.90;;;;;;5050339;28;20221;-64
2022/12/05 05:31:09;;;;;;;15.50;8.90;;;-7.60;99.90;;;;;;5051460;28;20215;-64
2022/12/05 05:33:36;;;;;;;15.63;9.77;;;-7.60;99.90;;;;;;5034401;28;20212;-64
2022/12/05 05:36:05;;;;;;;20.00;8.83;;;-7.60;99.90;;;;;;5034094;28;20201;-65
2022/12/05 05:38:35;;;;;;;14.87;7.47;;;-7.50;99.90;;;;;;5033945;28;20206;-65
2022/12/05 05:41:02;;;;;;;21.43;12.90;;;-7.50;99.90;;;;;;5033966;28;20602;-65
2022/12/05 05:43:29;;;;;;;15.80;8.83;;;-7.50;99.90;;;;;;5033487;28;20297;-64
2022/12/05 05:45:56;;;;;;;15.43;9.33;;;-7.50;99.90;;;;;;5040543;28;20566;-65
2022/12/05 05:48:22;;;;;;;23.40;10.53;;;-7.40;99.90;;;;;;5053621;28;20229;-64
2022/12/05 05:50:49;;;;;;;17.90;9.50;;;-7.40;99.90;;;;;;5053750;28;20216;-68
2022/12/05 05:53:16;;;;;;;21.67;10.40;;;-7.40;99.90;;;;;;5053752;28;20225;-67
2022/12/05 05:55:44;;;;;;;20.67;10.30;;;-7.30;99.90;;;;;;5049267;28;20240;-67
2022/12/05 05:58:11;;;;;;;21.27;11.30;;;-7.30;99.90;;;;;;5032363;28;20248;-68
2022/12/05 06:00:38;;;;;;;23.50;10.17;;;-7.30;99.90;;;;;;5032396;28;20198;-69
2022/12/05 06:03:04;;;;;;;26.33;11.43;;;-7.20;99.90;;;;;;5031955;28;20199;-67
2022/12/05 06:05:31;;;;;;;22.37;12.00;;;-7.10;99.90;;;;;;5032414;28;20229;-67
2022/12/05 06:07:58;;;;;;;29.47;16.23;;;-7.10;99.90;;;;;;5038597;28;20237;-67
2022/12/05 06:10:25;;;;;;;26.23;13.03;;;-7.00;99.90;;;;;;5043411;28;20680;-67
2022/12/05 06:12:53;;;;;;;24.27;10.80;;;-7.00;99.90;;;;;;5050194;28;20664;-65
2022/12/05 06:15:19;;;;;;;25.27;11.57;;;-6.90;99.90;;;;;;5038988;28;20202;-65
2022/12/05 06:17:46;;;;;;;24.20;14.00;;;-6.90;99.90;;;;;;5033830;28;20202;-65
2022/12/05 06:20:13;;;;;;;21.63;10.80;;;-6.80;99.90;;;;;;5033829;28;20214;-64
2022/12/05 06:22:40;;;;;;;28.67;13.33;;;-6.80;99.90;;;;;;5033438;28;20202;-65
2022/12/05 06:25:08;;;;;;;26.60;13.73;;;-6.70;99.90;;;;;;5033262;28;20680;-65
2022/12/05 06:27:35;;;;;;;35.43;12.40;;;-6.70;99.90;;;;;;5044020;28;20224;-65
2022/12/05 06:30:04;;;;;;;21.97;12.70;;;-6.80;99.90;;;;;;5033571;28;20224;-66
2022/12/05 06:32:31;;;;;;;22.80;12.90;;;-6.70;99.90;;;;;;5032898;28;20201;-67
2022/12/05 06:34:58;;;;;;;23.23;11.63;;;-6.60;99.90;;;;;;5032797;28;20205;-65
2022/12/05 06:37:24;;;;;;;22.63;11.80;;;-6.60;99.90;;;;;;5035644;28;20707;-66
2022/12/05 06:39:52;;;;;;;23.67;12.17;;;-6.50;99.90;;;;;;5032738;28;20611;-64
2022/12/05 06:42:21;;;;;;;22.93;12.97;;;-6.50;99.90;;;;;;5033396;28;20609;-67
2022/12/05 06:44:47;;;;;;;22.73;11.97;;;-6.50;99.90;;;;;;5052616;28;20663;-65
2022/12/05 06:47:15;;;;;;;27.57;14.50;;;-6.50;99.90;;;;;;5040796;28;20614;-65
2022/12/05 06:49:42;;;;;;;19.67;11.93;;;-6.40;99.90;;;;;;5032700;28;20206;-66
2022/12/05 06:52:09;;;;;;;23.77;12.70;;;-6.40;99.90;;;;;;5032724;28;20206;-66
2022/12/05 06:54:36;;;;;;;25.90;12.70;;;-6.40;99.90;;;;;;5032632;28;20202;-67
2022/12/05 06:57:03;;;;;;;24.23;11.83;;;-6.30;99.90;;;;;;5040527;28;20621;-66
2022/12/05 10:48:39;;;;;;;40.03;18.70;;;-4.60;99.90;;;;;;5098111;27;20585;-64
2022/12/05 10:51:11;;;;;;;41.67;20.23;;;-4.60;99.90;;;;;;5085526;28;20665;-63
2022/12/05 10:53:40;;;;;;;43.53;21.63;;;-4.50;99.90;;;;;;5568464;22;20229;-67
2022/12/05 10:56:38;;;;;;;35.87;19.57;;;-4.30;99.90;;;;;;5048120;28;20216;-66
2022/12/05 10:59:06;;;;;;;29.37;17.30;;;-4.20;99.90;;;;;;5042362;28;20212;-67
2022/12/05 11:01:35;;;;;;;33.97;18.77;;;-4.20;99.90;;;;;;5046747;28;20661;-66
2022/12/05 11:04:09;;;;;;;28.83;17.67;;;-4.20;99.90;;;;;;5045685;28;20672;-66
2022/12/05 11:06:36;;;;;;;27.63;17.20;;;-4.10;99.90;;;;;;5059211;28;20232;-67
2022/12/05 11:09:13;;;;;;;28.43;16.80;;;-4.10;99.90;;;;;;5052190;28;20767;-66
2022/12/05 11:11:40;;;;;;;30.80;18.90;;;-4.10;99.90;;;;;;5047445;28;20193;-67
2022/12/05 11:14:20;;;;;;;30.13;18.07;;;-4.10;99.90;;;;;;5036987;28;20205;-69
2022/12/05 11:16:53;;;;;;;31.13;18.77;;;-4.00;99.90;;;;;;5048672;28;20479;-67
2022/12/05 11:19:26;;;;;;;34.67;18.60;;;-3.80;99.90;;;;;;5045676;28;20198;-67
2022/12/05 11:21:54;;;;;;;31.33;19.00;;;-3.80;99.90;;;;;;5028791;28;20186;-72
2022/12/05 11:24:23;;;;;;;30.57;17.67;;;-3.80;99.90;;;;;;5043463;28;20208;-70
2022/12/05 11:26:50;;;;;;;37.33;18.80;;;-3.80;99.90;;;;;;5048609;28;20703;-72
2022/12/05 11:29:30;;;;;;;33.53;17.50;;;-3.80;99.90;;;;;;5040075;28;20236;-73
2022/12/05 11:31:57;;;;;;;28.67;16.57;;;-3.90;99.90;;;;;;5051127;28;20197;-71
2022/12/05 11:34:29;;;;;;;27.60;17.27;;;-3.90;99.90;;;;;;5048454;28;20657;-71
2022/12/05 11:36:58;;;;;;;36.73;17.87;;;-3.90;99.90;;;;;;5048940;28;20198;-71
2022/12/05 11:39:25;;;;;;;30.47;17.97;;;-4.00;99.90;;;;;;5051425;28;20587;-70
2022/12/05 11:42:16;;;;;;;32.40;18.40;;;-3.90;99.90;;;;;;5049242;28;20205;-71
2022/12/05 11:45:04;;;;;;;34.33;18.63;;;-3.90;99.90;;;;;;5046836;28;20190;-72
2022/12/05 11:47:59;;;;;;;33.57;18.60;;;-3.90;99.90;;;;;;5042915;28;20224;-72
2022/12/05 11:50:40;;;;;;;36.70;19.63;;;-3.80;99.90;;;;;;5051547;28;20197;-72
2022/12/05 11:53:25;;;;;;;39.00;20.33;;;-3.80;99.90;;;;;;5051144;28;20697;-72
2022/12/05 11:55:58;;;;;;;30.87;17.47;;;-3.80;99.90;;;;;;5029121;28;20205;-71
2022/12/05 11:58:45;;;;;;;28.97;17.63;;;-3.80;99.90;;;;;;5032007;28;20577;-72
2022/12/05 12:01:22;;;;;;;34.57;18.07;;;-3.90;99.90;;;;;;5033543;28;20558;-70
2022/12/05 12:04:09;;;;;;;26.90;17.30;;;-4.00;99.90;;;;;;5045116;28;20262;-70
2022/12/05 12:06:51;;;;;;;33.20;18.67;;;-4.10;99.90;;;;;;5034688;28;20716;-71
2022/12/05 12:09:34;;;;;;;28.80;17.53;;;-4.20;99.90;;;;;;5036062;28;20220;-71
2022/12/05 12:12:07;;;;;;;33.07;19.80;;;-4.20;99.90;;;;;;5033839;28;20190;-69
2022/12/05 12:14:45;;;;;;;31.13;19.93;;;-4.20;99.90;;;;;;5034804;28;20201;-73
2022/12/05 12:17:19;;;;;;;31.37;18.43;;;-4.20;99.90;;;;;;5033853;28;20221;-70
2022/12/05 12:20:01;;;;;;;32.77;18.70;;;-4.30;99.90;;;;;;5024310;28;20214;-71
2022/12/05 12:22:54;;;;;;;28.07;16.60;;;-4.30;99.90;;;;;;5013498;28;20191;-71
2022/12/05 12:25:33;;;;;;;30.77;17.97;;;-4.30;99.90;;;;;;5014862;28;20663;-70
2022/12/05 12:28:10;;;;;;;39.37;19.17;;;-4.30;99.90;;;;;;5025360;28;20213;-71
2022/12/05 12:30:51;;;;;;;31.30;18.40;;;-4.40;99.90;;;;;;5034544;28;20842;-70
2022/12/05 12:33:29;;;;;;;32.33;18.57;;;-4.40;99.90;;;;;;5045329;28;20209;-71
2022/12/05 12:36:02;;;;;;;33.43;19.70;;;-4.40;99.90;;;;;;5030997;28;20218;-72
2022/12/05 12:38:51;;;;;;;37.13;20.60;;;-4.50;99.90;;;;;;5026777;28;20194;-71
2022/12/05 12:41:36;;;;;;;33.10;19.33;;;-4.50;99.90;;;;;;5034028;28;20236;-70
2022/12/05 12:44:18;;;;;;;38.90;19.57;;;-4.50;99.90;;;;;;5033971;28;20200;-70
2022/12/05 12:46:51;;;;;;;33.07;19.23;;;-4.60;99.90;;;;;;5034997;28;20564;-70
2022/12/05 12:49:38;;;;;;;39.43;19.67;;;-4.60;99.90;;;;;;5033907;28;20190;-70
2022/12/05 12:52:11;;;;;;;31.83;18.37;;;-4.60;99.90;;;;;;5042823;28;20209;-70
2022/12/05 12:54:56;;;;;;;29.03;17.57;;;-4.60;99.90;;;;;;5016263;28;20389;-69
2022/12/05 12:57:29;;;;;;;32.80;17.80;;;-4.60;99.90;;;;;;5025218;28;20191;-71
2022/12/05 13:00:04;;;;;;;34.20;19.97;;;-4.60;99.90;;;;;;5033846;28;20198;-69
2022/12/05 13:02:36;;;;;;;32.43;19.13;;;-4.60;99.90;;;;;;5044792;28;20201;-70
2022/12/05 13:05:08;;;;;;;31.33;17.93;;;-4.60;99.90;;;;;;5033400;28;20198;-72
2022/12/05 13:07:41;;;;;;;35.13;19.97;;;-4.70;99.90;;;;;;5033583;28;20744;-71
2022/12/05 13:10:16;;;;;;;36.93;22.47;;;-4.70;99.90;;;;;;5021853;28;20206;-72
2022/12/05 13:12:45;;;;;;;34.33;19.43;;;-4.70;99.90;;;;;;5013061;28;20214;-71
2022/12/05 13:15:16;;;;;;;31.87;19.10;;;-4.70;99.90;;;;;;5014714;28;20213;-71
2022/12/05 13:17:47;;;;;;;33.43;19.73;;;-4.80;99.90;;;;;;5024309;28;20218;-71
2022/12/05 13:20:16;;;;;;;29.97;17.93;;;-4.80;99.90;;;;;;5032452;28;20479;-71
2022/12/05 13:22:45;;;;;;;35.60;19.63;;;-4.80;99.90;;;;;;5035442;28;20218;-72
2022/12/05 13:25:15;;;;;;;34.37;19.60;;;-4.80;99.90;;;;;;5016389;28;20205;-71
2022/12/05 13:27:55;;;;;;;32.30;19.43;;;-4.90;99.90;;;;;;5035911;28;20210;-71
2022/12/05 13:30:22;;;;;;;35.03;19.07;;;-4.90;99.90;;;;;;5045530;28;20249;-69
2022/12/05 13:32:56;;;;;;;38.13;20.37;;;-4.90;99.90;;;;;;5032735;28;20708;-71
2022/12/05 13:43:54;;;;;;;30.50;18.27;;;-5.00;99.90;;;;;;5031969;28;20208;-70
2022/12/05 13:46:27;;;;;;;48.07;29.03;;;-4.90;99.90;;;;;;5039790;28;20209;-71
2022/12/05 13:49:02;;;;;;;36.40;18.23;;;-4.90;99.90;;;;;;5035774;28;20217;-69
2022/12/05 13:51:33;;;;;;;37.50;22.40;;;-4.90;99.90;;;;;;5032876;28;20194;-71
2022/12/05 13:54:07;;;;;;;43.93;21.80;;;-4.90;99.90;;;;;;5031603;28;20717;-70
2022/12/05 13:56:52;;;;;;;30.73;18.03;;;-5.00;99.90;;;;;;5039721;28;20219;-72
2022/12/05 13:59:56;;;;;;;29.73;19.00;;;-5.00;99.90;;;;;;5032669;28;20197;-71
2022/12/05 14:02:51;;;;;;;30.53;17.77;;;-5.00;99.90;;;;;;5013318;28;20214;-72
2022/12/05 14:05:55;;;;;;;26.93;17.23;;;-5.00;99.90;;;;;;5029935;28;20797;-73
2022/12/05 14:08:45;;;;;;;28.30;16.63;;;-5.00;99.90;;;;;;5032704;28;20216;-71
2022/12/05 14:11:12;;;;;;;30.80;16.13;;;-5.00;99.90;;;;;;5032269;28;20205;-70
2022/12/05 14:13:43;;;;;;;31.87;15.93;;;-5.00;99.90;;;;;;5032424;28;20208;-70
2022/12/05 14:16:48;;;;;;;28.70;16.63;;;-5.00;99.90;;;;;;5032654;28;20525;-70
2022/12/05 14:19:48;;;;;;;24.50;14.20;;;-5.00;99.90;;;;;;5025029;28;20190;-71
2022/12/05 14:22:48;;;;;;;22.40;14.17;;;-5.00;99.90;;;;;;5023957;28;20198;-71
2022/12/05 14:25:38;;;;;;;22.97;13.03;;;-5.00;99.90;;;;;;5001960;28;20211;-71
2022/12/05 14:28:18;;;;;;;23.50;12.27;;;-5.10;99.90;;;;;;5013310;28;20265;-69
2022/12/05 14:30:59;;;;;;;28.47;15.53;;;-5.00;99.90;;;;;;5026050;28;20213;-70
2022/12/05 14:33:26;;;;;;;23.73;12.27;;;-5.00;99.90;;;;;;5032506;28;20284;-69
2022/12/05 14:35:53;;;;;;;23.17;12.93;;;-5.10;99.90;;;;;;5030952;28;20208;-69
2022/12/05 14:38:27;;;;;;;21.80;11.47;;;-5.10;99.90;;;;;;5018219;28;20195;-69
2022/12/05 14:40:56;;;;;;;20.93;12.03;;;-5.20;99.90;;;;;;5029595;28;20202;-71
2022/12/05 14:43:30;;;;;;;25.40;12.67;;;-5.20;99.90;;;;;;5031980;28;20216;-70
2022/12/05 14:46:02;;;;;;;23.97;12.50;;;-5.20;99.90;;;;;;5032263;28;20198;-70
2022/12/05 14:48:31;;;;;;;28.57;14.23;;;-5.30;99.90;;;;;;5032040;28;20214;-68
2022/12/05 14:50:59;;;;;;;27.63;14.97;;;-5.30;99.90;;;;;;5031089;28;20670;-71
2022/12/05 14:53:38;;;;;;;27.50;15.17;;;-5.30;99.90;;;;;;5031863;28;20563;-70
2022/12/05 14:56:18;;;;;;;29.73;15.70;;;-5.40;99.90;;;;;;5031975;28;20200;-70
2022/12/05 14:58:55;;;;;;;32.53;16.80;;;-5.40;99.90;;;;;;5031375;28;20292;-71
2022/12/05 15:01:27;;;;;;;31.87;17.37;;;-5.50;99.90;;;;;;5034983;28;20564;-71
2022/12/05 15:04:19;;;;;;;32.70;17.83;;;-5.50;99.90;;;;;;5031798;28;20205;-70
2022/12/05 15:06:49;;;;;;;30.10;16.87;;;-5.50;99.90;;;;;;5030083;28;20202;-70
2022/12/05 15:09:43;;;;;;;33.53;17.50;;;-5.50;99.90;;;;;;5025562;28;20226;-70
2022/12/05 15:12:15;;;;;;;32.10;17.00;;;-5.50;99.90;;;;;;5015822;28;20324;-70
2022/12/05 15:14:53;;;;;;;29.80;16.63;;;-5.50;99.90;;;;;;5031562;28;20212;-70
2022/12/05 15:17:25;;;;;;;33.23;18.20;;;-5.50;99.90;;;;;;5031797;28;20230;-71
2022/12/05 15:19:57;;;;;;;42.60;20.13;;;-5.50;99.90;;;;;;5031749;28;20197;-70
2022/12/05 15:22:27;;;;;;;38.40;19.97;;;-5.50;99.90;;;;;;5031588;28;20197;-69
2022/12/05 15:24:54;;;;;;;35.17;20.13;;;-5.50;99.90;;;;;;5031441;28;20205;-70
2022/12/05 15:27:21;;;;;;;38.53;19.70;;;-5.50;99.90;;;;;;5019501;28;20198;-69
2022/12/05 15:29:53;;;;;;;41.03;19.67;;;-5.60;99.90;;;;;;5031506;28;20210;-69
2022/12/05 15:32:25;;;;;;;38.37;20.50;;;-5.60;99.90;;;;;;5031530;28;20210;-70
2022/12/05 15:34:56;;;;;;;44.17;23.50;;;-5.60;99.90;;;;;;5034033;28;20191;-69
2022/12/05 15:37:28;;;;;;;34.20;17.33;;;-5.70;99.90;;;;;;5034441;28;20612;-68
2022/12/05 15:39:56;;;;;;;34.00;17.97;;;-5.60;99.90;;;;;;5024460;28;20195;-70
2022/12/05 15:42:24;;;;;;;30.00;17.80;;;-5.70;99.90;;;;;;5038147;28;20206;-70
2022/12/05 15:44:51;;;;;;;27.60;16.63;;;-5.70;99.90;;;;;;5036870;28;20210;-70
2022/12/05 15:47:24;;;;;;;35.80;16.33;;;-5.80;99.90;;;;;;5038137;28;20213;-68
2022/12/05 15:49:51;;;;;;;32.20;17.57;;;-5.80;99.90;;;;;;5033898;28;20224;-69
2022/12/05 15:52:28;;;;;;;34.10;18.80;;;-5.80;99.90;;;;;;5035033;28;20610;-71
2022/12/05 15:54:56;;;;;;;46.50;21.37;;;-5.80;99.90;;;;;;5034628;28;20242;-70
2022/12/05 15:57:31;;;;;;;42.40;22.60;;;-5.80;99.90;;;;;;5034528;28;20202;-69
2022/12/05 16:00:04;;;;;;;42.97;23.63;;;-5.90;99.90;;;;;;5035393;28;20205;-72
2022/12/05 16:02:41;;;;;;;55.17;27.10;;;-5.90;99.90;;;;;;5036070;28;20201;-69
2022/12/05 16:05:21;;;;;;;59.47;29.00;;;-5.80;99.90;;;;;;5034786;28;20616;-70
2022/12/05 16:07:49;;;;;;;57.07;29.13;;;-5.80;99.90;;;;;;5034180;28;20248;-69
2022/12/05 16:10:19;;;;;;;52.67;26.43;;;-5.80;99.90;;;;;;5034507;28;20536;-68
2022/12/05 16:12:48;;;;;;;55.57;26.87;;;-5.70;99.90;;;;;;5034031;28;20222;-70
2022/12/05 16:15:21;;;;;;;46.07;26.00;;;-5.70;99.90;;;;;;5034414;28;20213;-68
2022/12/05 22:27:59;;;;;;;62.50;33.37;;;-7.30;99.90;;;;;;5083708;28;20566;-67
2022/12/05 22:30:26;;;;;;;65.30;37.07;;;-7.20;99.90;;;;;;5078038;28;20203;-68
2022/12/05 22:32:53;;;;;;;59.43;31.93;;;-7.10;99.90;;;;;;5068546;28;20315;-66
2022/12/05 22:35:20;;;;;;;48.17;25.53;;;-7.00;99.90;;;;;;5068538;28;20201;-66
2022/12/05 22:40:22;;;;;;;46.73;22.87;;;-6.80;99.90;;;;;;5275756;22;20653;-65
2022/12/05 22:42:49;;;;;;;42.40;23.07;;;-6.70;99.90;;;;;;5045746;28;20683;-66
2022/12/05 22:45:17;;;;;;;41.47;23.00;;;-6.60;99.90;;;;;;5046556;28;20817;-65
2022/12/05 22:47:44;;;;;;;42.87;23.27;;;-6.50;99.90;;;;;;5047794;28;20221;-65
2022/12/05 22:50:11;;;;;;;45.17;26.13;;;-6.40;99.90;;;;;;5048853;28;20198;-66
2022/12/05 22:52:38;;;;;;;57.70;31.90;;;-6.40;99.90;;;;;;5049136;28;20205;-66
2022/12/05 22:55:06;;;;;;;56.40;31.30;;;-6.30;99.90;;;;;;5049341;28;20217;-67
2022/12/05 22:57:33;;;;;;;43.90;24.60;;;-6.30;99.90;;;;;;5048433;28;20197;-66
2022/12/05 23:00:03;;;;;;;40.67;20.07;;;-6.30;99.90;;;;;;5048852;28;20209;-65
2022/12/05 23:02:31;;;;;;;34.87;20.00;;;-6.20;99.90;;;;;;5048688;28;20240;-66
2022/12/05 23:04:58;;;;;;;39.27;21.43;;;-6.20;99.90;;;;;;5048148;28;20218;-65
2022/12/05 23:07:25;;;;;;;38.83;21.23;;;-6.10;99.90;;;;;;5048148;28;20312;-64
2022/12/05 23:09:52;;;;;;;37.53;19.80;;;-6.10;99.90;;;;;;5047902;28;20231;-65
2022/12/05 23:12:18;;;;;;;37.47;19.80;;;-6.10;99.90;;;;;;5048379;28;20563;-65
2022/12/05 23:14:45;;;;;;;37.17;20.60;;;-6.00;99.90;;;;;;5048366;28;20212;-67
2022/12/05 23:17:12;;;;;;;34.93;18.70;;;-6.00;99.90;;;;;;5048361;28;20208;-66